sensor_id;sensor_type;location;lat;lon;timestamp;pressure;altitude;pressure_sealevel;temperature;humidity
66560;BME280;53413;49.878;8.142;2023-03-01T00:00:52;101100.50;;;-2.81;100.00
66560;BME280;53413;49.878;8.142;2023-03-01T00:03:18;101099.78;;;-2.76;100.00
66560;BME280;53413;49.878;8.142;2023-03-01T00:05:44;101105.75;;;-2.78;100.00
66560;BME280;53413;49.878;8.142;2023-03-01T00:08:10;101114.25;;;-2.79;100.00
66560;BME280;53413;49.878;8.142;2023-03-01T00:10:36;101110.09;;;-2.75;100.00
66560;BME280;53413;49.878;8.142;2023-03-01T00:13:01;101113.72;;;-2.70;100.00
66560;BME280;53413;49.878;8.142;2023-03-01T00:15:27;101112.94;;;-2.67;100.00
66560;BME280;53413;49.878;8.142;2023-03-01T00:17:53;101110.25;;;-2.70;100.00
66560;BME280;53413;49.878;8.142;2023-03-01T00:20:18;101108.53;;;-2.71;100.00
66560;BME280;53413;49.878;8.142;2023-03-01T00:22:43;101107.50;;;-2.76;100.00
66560;BME280;53413;49.878;8.142;2023-03-01T00:25:09;101106.56;;;-2.79;100.00
66560;BME280;53413;49.878;8.142;2023-03-01T00:27:34;101115.03;;;-2.81;100.00
66560;BME280;53413;49.878;8.142;2023-03-01T00:29:59;101111.59;;;-2.82;100.00
66560;BME280;53413;49.878;8.142;2023-03-01T00:32:25;101110.72;;;-2.82;100.00
66560;BME280;53413;49.878;8.142;2023-03-01T00:34:50;101112.66;;;-2.75;100.00
66560;BME280;53413;49.878;8.142;2023-03-01T00:37:21;101101.66;;;-2.72;100.00
66560;BME280;53413;49.878;8.142;2023-03-01T00:39:47;101099.91;;;-2.73;100.00
66560;BME280;53413;49.878;8.142;2023-03-01T00:42:12;101103.22;;;-2.76;100.00
66560;BME280;53413;49.878;8.142;2023-03-01T00:44:38;101103.97;;;-2.80;100.00
66560;BME280;53413;49.878;8.142;2023-03-01T00:47:03;101101.97;;;-2.87;100.00
66560;BME280;53413;49.878;8.142;2023-03-01T00:49:28;101094.94;;;-2.93;100.00
66560;BME280;53413;49.878;8.142;2023-03-01T00:51:54;101091.66;;;-2.90;100.00
66560;BME280;53413;49.878;8.142;2023-03-01T00:54:19;101095.06;;;-2.90;100.00
66560;BME280;53413;49.878;8.142;2023-03-01T00:56:44;101088.94;;;-2.95;100.00
66560;BME280;53413;49.878;8.142;2023-03-01T00:59:10;101092.19;;;-2.99;100.00
66560;BME280;53413;49.878;8.142;2023-03-01T01:01:35;101088.59;;;-3.04;100.00
66560;BME280;53413;49.878;8.142;2023-03-01T01:04:03;101082.47;;;-3.08;100.00
66560;BME280;53413;49.878;8.142;2023-03-01T01:06:32;101083.19;;;-3.12;100.00
66560;BME280;53413;49.878;8.142;2023-03-01T01:08:57;101080.63;;;-3.12;100.00
66560;BME280;53413;49.878;8.142;2023-03-01T01:11:24;101090.00;;;-3.13;100.00
66560;BME280;53413;49.878;8.142;2023-03-01T01:13:51;101079.75;;;-3.13;100.00
66560;BME280;53413;49.878;8.142;2023-03-01T01:16:18;101073.84;;;-3.10;100.00
66560;BME280;53413;49.878;8.142;2023-03-01T01:18:45;101067.97;;;-3.07;100.00
66560;BME280;53413;49.878;8.142;2023-03-01T01:21:13;101066.44;;;-3.02;100.00
66560;BME280;53413;49.878;8.142;2023-03-01T01:23:42;101057.09;;;-3.00;100.00
66560;BME280;53413;49.878;8.142;2023-03-01T01:26:14;101052.69;;;-3.04;100.00
66560;BME280;53413;49.878;8.142;2023-03-01T01:28:40;101055.22;;;-3.06;100.00
66560;BME280;53413;49.878;8.142;2023-03-01T01:31:06;101047.41;;;-3.09;100.00
66560;BME280;53413;49.878;8.142;2023-03-01T01:33:32;101035.47;;;-3.08;100.00
66560;BME280;53413;49.878;8.142;2023-03-01T01:35:58;101034.69;;;-3.06;100.00
66560;BME280;53413;49.878;8.142;2023-03-01T01:38:24;101027.03;;;-3.04;100.00
66560;BME280;53413;49.878;8.142;2023-03-01T01:40:50;101036.59;;;-3.00;100.00
66560;BME280;53413;49.878;8.142;2023-03-01T01:43:20;101035.00;;;-2.97;100.00
66560;BME280;53413;49.878;8.142;2023-03-01T01:45:46;101038.59;;;-2.91;100.00
66560;BME280;53413;49.878;8.142;2023-03-01T01:48:17;101027.59;;;-2.87;100.00
66560;BME280;53413;49.878;8.142;2023-03-01T01:50:44;101024.28;;;-2.85;100.00
66560;BME280;53413;49.878;8.142;2023-03-01T01:53:13;101023.53;;;-2.81;100.00
66560;BME280;53413;49.878;8.142;2023-03-01T01:55:42;101025.41;;;-2.76;100.00
66560;BME280;53413;49.878;8.142;2023-03-01T01:58:12;101022.94;;;-2.73;100.00
66560;BME280;53413;49.878;8.142;2023-03-01T02:00:39;101019.56;;;-2.72;100.00
66560;BME280;53413;49.878;8.142;2023-03-01T02:03:08;101018.66;;;-2.73;100.00
66560;BME280;53413;49.878;8.142;2023-03-01T02:08:03;101010.94;;;-2.74;100.00
66560;BME280;53413;49.878;8.142;2023-03-01T02:10:29;101007.44;;;-2.76;100.00
66560;BME280;53413;49.878;8.142;2023-03-01T02:12:58;101007.44;;;-2.76;100.00
66560;BME280;53413;49.878;8.142;2023-03-01T02:15:23;101007.44;;;-2.76;100.00
66560;BME280;53413;49.878;8.142;2023-03-01T02:17:49;101003.13;;;-2.78;100.00
66560;BME280;53413;49.878;8.142;2023-03-01T02:20:44;101010.81;;;-2.78;100.00
66560;BME280;53413;49.878;8.142;2023-03-01T02:23:13;101011.66;;;-2.79;100.00
66560;BME280;53413;49.878;8.142;2023-03-01T02:26:36;101006.59;;;-2.77;100.00
66560;BME280;53413;49.878;8.142;2023-03-01T02:29:00;101010.81;;;-2.78;100.00
66560;BME280;53413;49.878;8.142;2023-03-01T02:31:25;101010.94;;;-2.74;100.00
66560;BME280;53413;49.878;8.142;2023-03-01T02:34:18;101002.50;;;-2.70;100.00
66560;BME280;53413;49.878;8.142;2023-03-01T02:37:06;101003.41;;;-2.68;100.00
66560;BME280;53413;49.878;8.142;2023-03-01T02:39:46;100995.69;;;-2.70;100.00
66560;BME280;53413;49.878;8.142;2023-03-01T02:42:17;101000.00;;;-2.69;100.00
66560;BME280;53413;49.878;8.142;2023-03-01T02:44:44;100992.41;;;-2.66;100.00
66560;BME280;53413;49.878;8.142;2023-03-01T02:47:10;100983.94;;;-2.63;100.00
66560;BME280;53413;49.878;8.142;2023-03-01T02:49:36;100977.22;;;-2.58;100.00
66560;BME280;53413;49.878;8.142;2023-03-01T02:55:14;100979.97;;;-2.53;100.00
66560;BME280;53413;49.878;8.142;2023-03-01T02:57:43;100976.59;;;-2.51;100.00
66560;BME280;53413;49.878;8.142;2023-03-01T03:00:12;100975.00;;;-2.47;100.00
66560;BME280;53413;49.878;8.142;2023-03-01T03:02:45;100970.88;;;-2.42;100.00
66560;BME280;53413;49.878;8.142;2023-03-01T03:05:14;100969.38;;;-2.35;100.00
66560;BME280;53413;49.878;8.142;2023-03-01T03:07:41;100963.50;;;-2.31;100.00
66560;BME280;53413;49.878;8.142;2023-03-01T03:10:15;100961.94;;;-2.26;100.00
66560;BME280;53413;49.878;8.142;2023-03-01T03:12:41;100958.69;;;-2.20;100.00
66560;BME280;53413;49.878;8.142;2023-03-01T03:15:09;100951.00;;;-2.19;100.00
66560;BME280;53413;49.878;8.142;2023-03-01T03:17:39;100946.81;;;-2.17;100.00
66560;BME280;53413;49.878;8.142;2023-03-01T03:20:06;100952.06;;;-2.12;100.00
66560;BME280;53413;49.878;8.142;2023-03-01T03:22:36;100948.66;;;-2.11;100.00
66560;BME280;53413;49.878;8.142;2023-03-01T03:25:02;100941.06;;;-2.08;100.00
66560;BME280;53413;49.878;8.142;2023-03-01T03:27:27;100946.19;;;-2.08;100.00
66560;BME280;53413;49.878;8.142;2023-03-01T03:29:53;100941.09;;;-2.06;100.00
66560;BME280;53413;49.878;8.142;2023-03-01T03:32:18;100941.97;;;-2.06;100.00
66560;BME280;53413;49.878;8.142;2023-03-01T03:34:43;100947.97;;;-2.05;100.00
66560;BME280;53413;49.878;8.142;2023-03-01T03:37:09;100938.63;;;-2.03;100.00
66560;BME280;53413;49.878;8.142;2023-03-01T03:39:54;100932.69;;;-2.01;100.00
66560;BME280;53413;49.878;8.142;2023-03-01T03:42:21;100937.97;;;-1.96;100.00
66560;BME280;53413;49.878;8.142;2023-03-01T03:44:47;100933.00;;;-1.90;100.00
66560;BME280;53413;49.878;8.142;2023-03-01T03:47:13;100929.72;;;-1.84;100.00
66560;BME280;53413;49.878;8.142;2023-03-01T03:49:38;100927.25;;;-1.81;100.00
66560;BME280;53413;49.878;8.142;2023-03-01T03:52:04;100920.53;;;-1.76;100.00
66560;BME280;53413;49.878;8.142;2023-03-01T03:54:29;100918.06;;;-1.71;100.00
66560;BME280;53413;49.878;8.142;2023-03-01T03:56:54;100916.38;;;-1.71;100.00
66560;BME280;53413;49.878;8.142;2023-03-01T03:59:20;100911.19;;;-1.72;100.00
66560;BME280;53413;49.878;8.142;2023-03-01T04:01:45;100908.59;;;-1.74;100.00
66560;BME280;53413;49.878;8.142;2023-03-01T04:04:10;100897.41;;;-1.76;100.00
66560;BME280;53413;49.878;8.142;2023-03-01T04:06:36;100903.38;;;-1.77;100.00
66560;BME280;53413;49.878;8.142;2023-03-01T04:09:01;100900.75;;;-1.78;100.00
66560;BME280;53413;49.878;8.142;2023-03-01T04:11:27;100895.63;;;-1.78;100.00
66560;BME280;53413;49.878;8.142;2023-03-01T04:13:55;100897.28;;;-1.80;100.00
66560;BME280;53413;49.878;8.142;2023-03-01T04:16:21;100899.00;;;-1.81;100.00
66560;BME280;53413;49.878;8.142;2023-03-01T04:18:47;100902.41;;;-1.80;100.00
66560;BME280;53413;49.878;8.142;2023-03-01T04:21:13;100906.63;;;-1.82;100.00
66560;BME280;53413;49.878;8.142;2023-03-01T04:23:38;100905.72;;;-1.84;100.00
66560;BME280;53413;49.878;8.142;2023-03-01T04:26:05;100906.63;;;-1.82;100.00
66560;BME280;53413;49.878;8.142;2023-03-01T04:28:37;100909.19;;;-1.84;100.00
66560;BME280;53413;49.878;8.142;2023-03-01T04:31:10;100909.19;;;-1.84;100.00
66560;BME280;53413;49.878;8.142;2023-03-01T04:33:44;100906.53;;;-1.86;100.00
66560;BME280;53413;49.878;8.142;2023-03-01T04:36:11;100908.22;;;-1.88;100.00
66560;BME280;53413;49.878;8.142;2023-03-01T04:38:38;100907.31;;;-1.90;100.00
66560;BME280;53413;49.878;8.142;2023-03-01T04:41:09;100904.69;;;-1.91;100.00
66560;BME280;53413;49.878;8.142;2023-03-01T04:43:36;100908.06;;;-1.94;100.00
66560;BME280;53413;49.878;8.142;2023-03-01T04:46:07;100907.13;;;-1.96;100.00
66560;BME280;53413;49.878;8.142;2023-03-01T04:48:35;100900.22;;;-1.98;100.00
66560;BME280;53413;49.878;8.142;2023-03-01T04:51:01;100906.22;;;-1.98;100.00
66560;BME280;53413;49.878;8.142;2023-03-01T04:53:27;100903.66;;;-1.98;100.00
66560;BME280;53413;49.878;8.142;2023-03-01T04:55:54;100901.94;;;-1.99;100.00
66560;BME280;53413;49.878;8.142;2023-03-01T04:58:20;100903.59;;;-2.01;100.00
66560;BME280;53413;49.878;8.142;2023-03-01T05:00:45;100901.78;;;-2.04;100.00
66560;BME280;53413;49.878;8.142;2023-03-01T05:03:11;100905.97;;;-2.07;100.00
66560;BME280;53413;49.878;8.142;2023-03-01T05:05:37;100899.19;;;-2.05;100.00
66560;BME280;53413;49.878;8.142;2023-03-01T05:08:06;100895.91;;;-1.99;100.00
66560;BME280;53413;49.878;8.142;2023-03-01T05:10:33;100893.44;;;-1.96;100.00
66560;BME280;53413;49.878;8.142;2023-03-01T05:13:00;100896.91;;;-1.94;100.00
66560;BME280;53413;49.878;8.142;2023-03-01T05:15:28;100885.97;;;-1.87;100.00
66560;BME280;53413;49.878;8.142;2023-03-01T05:17:55;100889.56;;;-1.80;100.00
66560;BME280;53413;49.878;8.142;2023-03-01T05:20:23;100886.41;;;-1.70;100.00
66560;BME280;53413;49.878;8.142;2023-03-01T05:22:50;100889.91;;;-1.68;100.00
66560;BME280;53413;49.878;8.142;2023-03-01T05:25:16;100889.91;;;-1.66;100.00
66560;BME280;53413;49.878;8.142;2023-03-01T05:27:42;100896.88;;;-1.62;100.00
66560;BME280;53413;49.878;8.142;2023-03-01T05:30:08;100897.03;;;-1.56;100.00
66560;BME280;53413;49.878;8.142;2023-03-01T05:35:06;100898.88;;;-1.52;100.00
66560;BME280;53413;49.878;8.142;2023-03-01T05:37:32;100898.91;;;-1.50;100.00
66560;BME280;53413;49.878;8.142;2023-03-01T05:39:57;100897.13;;;-1.53;100.00
66560;BME280;53413;49.878;8.142;2023-03-01T05:42:22;100893.72;;;-1.52;100.00
66560;BME280;53413;49.878;8.142;2023-03-01T05:44:48;100895.50;;;-1.49;100.00
66560;BME280;53413;49.878;8.142;2023-03-01T05:47:13;100894.59;;;-1.51;100.00
66560;BME280;53413;49.878;8.142;2023-03-01T05:49:38;100895.38;;;-1.54;100.00
66560;BME280;53413;49.878;8.142;2023-03-01T05:52:04;100899.75;;;-1.51;100.00
66560;BME280;53413;49.878;8.142;2023-03-01T05:54:29;100891.13;;;-1.53;100.00
66560;BME280;53413;49.878;8.142;2023-03-01T05:56:54;100897.94;;;-1.54;100.00
66560;BME280;53413;49.878;8.142;2023-03-01T05:59:21;100898.88;;;-1.52;100.00
66560;BME280;53413;49.878;8.142;2023-03-01T06:01:46;100904.91;;;-1.51;100.00
66560;BME280;53413;49.878;8.142;2023-03-01T06:04:12;100897.22;;;-1.48;100.00
66560;BME280;53413;49.878;8.142;2023-03-01T06:06:37;100895.56;;;-1.46;100.00
66560;BME280;53413;49.878;8.142;2023-03-01T06:09:04;100899.06;;;-1.44;100.00
66560;BME280;53413;49.878;8.142;2023-03-01T06:11:29;100898.22;;;-1.43;100.00
66560;BME280;53413;49.878;8.142;2023-03-01T06:13:55;100899.19;;;-1.38;100.00
66560;BME280;53413;49.878;8.142;2023-03-01T06:16:20;100895.84;;;-1.35;100.00
66560;BME280;53413;49.878;8.142;2023-03-01T06:18:45;100896.81;;;-1.32;100.00
66560;BME280;53413;49.878;8.142;2023-03-01T06:21:11;100897.78;;;-1.27;100.00
66560;BME280;53413;49.878;8.142;2023-03-01T06:23:36;100895.34;;;-1.20;100.00
66560;BME280;53413;49.878;8.142;2023-03-01T06:26:05;100901.53;;;-1.14;100.00
66560;BME280;53413;49.878;8.142;2023-03-01T06:28:31;100900.88;;;-1.05;100.00
66560;BME280;53413;49.878;8.142;2023-03-01T06:30:56;100890.78;;;-0.96;100.00
66560;BME280;53413;49.878;8.142;2023-03-01T06:33:22;100897.88;;;-0.85;100.00
66560;BME280;53413;49.878;8.142;2023-03-01T06:35:49;100899.84;;;-0.75;100.00
66560;BME280;53413;49.878;8.142;2023-03-01T06:38:14;100899.19;;;-0.65;100.00
66560;BME280;53413;49.878;8.142;2023-03-01T06:40:42;100895.09;;;-0.56;100.00
66560;BME280;53413;49.878;8.142;2023-03-01T06:43:07;100892.72;;;-0.47;100.00
66560;BME280;53413;49.878;8.142;2023-03-01T06:45:33;100886.09;;;-0.34;100.00
66560;BME280;53413;49.878;8.142;2023-03-01T06:48:06;100881.25;;;-0.20;100.00
66560;BME280;53413;49.878;8.142;2023-03-01T06:50:33;100879.00;;;-0.03;100.00
66560;BME280;53413;49.878;8.142;2023-03-01T06:52:59;100887.91;;;0.13;100.00
66560;BME280;53413;49.878;8.142;2023-03-01T06:55:24;100882.19;;;0.31;100.00
66560;BME280;53413;49.878;8.142;2023-03-01T06:57:57;100885.84;;;0.44;100.00
66560;BME280;53413;49.878;8.142;2023-03-01T07:00:24;100888.56;;;0.50;100.00
66560;BME280;53413;49.878;8.142;2023-03-01T07:02:50;100887.84;;;0.59;100.00
66560;BME280;53413;49.878;8.142;2023-03-01T07:05:15;100885.34;;;0.64;100.00
66560;BME280;53413;49.878;8.142;2023-03-01T07:07:40;100879.41;;;0.69;100.00
66560;BME280;53413;49.878;8.142;2023-03-01T07:10:06;100890.56;;;0.68;100.00
66560;BME280;53413;49.878;8.142;2023-03-01T07:12:32;100890.59;;;0.70;100.00
66560;BME280;53413;49.878;8.142;2023-03-01T07:14:58;100893.09;;;0.67;99.70
66560;BME280;53413;49.878;8.142;2023-03-01T07:17:23;100896.56;;;0.67;100.00
66560;BME280;53413;49.878;8.142;2023-03-01T07:19:49;100888.91;;;0.70;100.00
66560;BME280;53413;49.878;8.142;2023-03-01T07:22:14;100884.66;;;0.75;100.00
66560;BME280;53413;49.878;8.142;2023-03-01T07:24:41;100885.63;;;0.82;100.00
66560;BME280;53413;49.878;8.142;2023-03-01T07:27:06;100880.47;;;0.82;99.24
66560;BME280;53413;49.878;8.142;2023-03-01T07:29:31;100885.75;;;0.88;98.54
66560;BME280;53413;49.878;8.142;2023-03-01T07:31:57;100880.13;;;1.14;97.99
66560;BME280;53413;49.878;8.142;2023-03-01T07:34:23;100872.97;;;1.61;95.61
66560;BME280;53413;49.878;8.142;2023-03-01T07:36:48;100868.38;;;2.13;93.42
66560;BME280;53413;49.878;8.142;2023-03-01T07:39:14;100874.91;;;2.67;90.20
66560;BME280;53413;49.878;8.142;2023-03-01T07:41:39;100875.31;;;3.24;86.61
66560;BME280;53413;49.878;8.142;2023-03-01T07:44:05;100872.97;;;3.77;83.38
66560;BME280;53413;49.878;8.142;2023-03-01T07:46:30;100873.13;;;4.39;80.61
66560;BME280;53413;49.878;8.142;2023-03-01T07:48:56;100870.50;;;5.15;77.12
66560;BME280;53413;49.878;8.142;2023-03-01T07:51:23;100858.88;;;6.12;72.10
66560;BME280;53413;49.878;8.142;2023-03-01T07:53:48;100866.84;;;7.02;68.69
66560;BME280;53413;49.878;8.142;2023-03-01T07:56:15;100864.38;;;7.66;63.34
66560;BME280;53413;49.878;8.142;2023-03-01T07:58:45;100857.03;;;7.99;61.90
66560;BME280;53413;49.878;8.142;2023-03-01T08:01:12;100848.06;;;8.74;60.34
66560;BME280;53413;49.878;8.142;2023-03-01T08:03:39;100845.47;;;9.65;56.33
66560;BME280;53413;49.878;8.142;2023-03-01T08:06:06;100841.00;;;10.49;53.45
66560;BME280;53413;49.878;8.142;2023-03-01T08:08:32;100849.03;;;11.12;51.29
66560;BME280;53413;49.878;8.142;2023-03-01T08:11:00;100834.44;;;11.93;49.31
66560;BME280;53413;49.878;8.142;2023-03-01T08:13:26;100836.72;;;12.05;47.39
66560;BME280;53413;49.878;8.142;2023-03-01T08:15:52;100839.09;;;12.93;45.38
66560;BME280;53413;49.878;8.142;2023-03-01T08:18:19;100843.44;;;13.69;43.59
66560;BME280;53413;49.878;8.142;2023-03-01T08:20:45;100838.41;;;14.09;42.34
66560;BME280;53413;49.878;8.142;2023-03-01T08:23:11;100833.34;;;14.69;40.59
66560;BME280;53413;49.878;8.142;2023-03-01T08:25:37;100821.06;;;14.89;40.93
66560;BME280;53413;49.878;8.142;2023-03-01T08:28:02;100821.06;;;14.89;40.93
66560;BME280;53413;49.878;8.142;2023-03-01T08:30:28;100815.19;;;16.37;37.19
66560;BME280;53413;49.878;8.142;2023-03-01T08:32:53;100816.28;;;16.68;36.53
66560;BME280;53413;49.878;8.142;2023-03-01T08:35:19;100818.88;;;17.04;35.74
66560;BME280;53413;49.878;8.142;2023-03-01T08:37:45;100822.00;;;16.95;35.47
66560;BME280;53413;49.878;8.142;2023-03-01T08:40:11;100815.78;;;17.30;34.84
66560;BME280;53413;49.878;8.142;2023-03-01T08:42:39;100815.13;;;17.58;34.29
66560;BME280;53413;49.878;8.142;2023-03-01T08:45:05;100825.03;;;17.38;33.89
66560;BME280;53413;49.878;8.142;2023-03-01T08:47:30;100820.50;;;16.72;34.49
66560;BME280;53413;49.878;8.142;2023-03-01T08:49:55;100813.09;;;16.96;35.29
66560;BME280;53413;49.878;8.142;2023-03-01T08:52:21;100804.44;;;17.92;34.16
66560;BME280;53413;49.878;8.142;2023-03-01T08:54:48;100794.25;;;18.46;33.93
66560;BME280;53413;49.878;8.142;2023-03-01T08:57:13;100784.16;;;19.13;31.46
66560;BME280;53413;49.878;8.142;2023-03-01T08:59:39;100785.75;;;19.01;31.89
66560;BME280;53413;49.878;8.142;2023-03-01T09:02:12;100786.63;;;19.16;31.44
66560;BME280;53413;49.878;8.142;2023-03-01T09:04:39;100786.63;;;19.01;31.93
66560;BME280;53413;49.878;8.142;2023-03-01T09:07:04;100773.72;;;19.10;31.43
66560;BME280;53413;49.878;8.142;2023-03-01T09:09:29;100766.72;;;18.19;31.72
66560;BME280;53413;49.878;8.142;2023-03-01T09:11:55;100774.94;;;18.44;31.91
66560;BME280;53413;49.878;8.142;2023-03-01T09:14:20;100770.59;;;18.43;32.13
66560;BME280;53413;49.878;8.142;2023-03-01T09:16:46;100767.28;;;19.14;31.37
66560;BME280;53413;49.878;8.142;2023-03-01T09:19:12;100769.53;;;19.20;30.87
66560;BME280;53413;49.878;8.142;2023-03-01T09:21:37;100768.38;;;18.81;31.07
66560;BME280;53413;49.878;8.142;2023-03-01T09:24:03;100760.88;;;18.73;30.85
66560;BME280;53413;49.878;8.142;2023-03-01T09:26:28;100764.34;;;18.59;30.95
66560;BME280;53413;49.878;8.142;2023-03-01T09:28:55;100768.19;;;17.76;31.19
66560;BME280;53413;49.878;8.142;2023-03-01T09:31:22;100769.38;;;17.22;32.08
66560;BME280;53413;49.878;8.142;2023-03-01T09:33:49;100774.63;;;16.89;32.50
66560;BME280;53413;49.878;8.142;2023-03-01T09:36:18;100778.56;;;16.82;32.82
66560;BME280;53413;49.878;8.142;2023-03-01T09:38:44;100771.00;;;16.74;32.51
66560;BME280;53413;49.878;8.142;2023-03-01T09:43:57;100774.91;;;17.18;32.51
66560;BME280;53413;49.878;8.142;2023-03-01T09:46:25;100775.25;;;17.28;31.83
66560;BME280;53413;49.878;8.142;2023-03-01T09:48:54;100770.13;;;16.73;32.92
66560;BME280;53413;49.878;8.142;2023-03-01T09:51:32;100761.75;;;17.16;32.42
66560;BME280;53413;49.878;8.142;2023-03-01T09:53:57;100764.31;;;17.02;32.43
66560;BME280;53413;49.878;8.142;2023-03-01T09:56:42;100768.34;;;16.21;33.00
66560;BME280;53413;49.878;8.142;2023-03-01T10:01:53;100750.03;;;16.53;33.11
66560;BME280;53413;49.878;8.142;2023-03-01T10:09:54;100744.16;;;15.55;34.06
66560;BME280;53413;49.878;8.142;2023-03-01T10:12:25;100744.75;;;15.24;34.71
66560;BME280;53413;49.878;8.142;2023-03-01T10:15:09;100751.41;;;14.52;35.25
66560;BME280;53413;49.878;8.142;2023-03-01T10:17:51;100744.88;;;13.29;37.06
66560;BME280;53413;49.878;8.142;2023-03-01T10:20:23;100754.59;;;11.12;40.02
66560;BME280;53413;49.878;8.142;2023-03-01T10:22:49;100749.56;;;9.64;42.41
66560;BME280;53413;49.878;8.142;2023-03-01T10:28:17;100749.34;;;7.85;46.95
66560;BME280;53413;49.878;8.142;2023-03-01T10:30:43;100737.75;;;7.44;48.62
66560;BME280;53413;49.878;8.142;2023-03-01T10:35:43;100728.47;;;7.24;49.33
66560;BME280;53413;49.878;8.142;2023-03-01T10:38:11;100749.53;;;7.05;50.12
66560;BME280;53413;49.878;8.142;2023-03-01T10:40:59;100736.69;;;6.90;50.64
66560;BME280;53413;49.878;8.142;2023-03-01T10:43:32;100720.38;;;6.72;51.95
66560;BME280;53413;49.878;8.142;2023-03-01T10:46:23;100723.00;;;6.69;50.98
66560;BME280;53413;49.878;8.142;2023-03-01T10:51:30;100709.25;;;6.56;52.33
66560;BME280;53413;49.878;8.142;2023-03-01T10:53:56;100717.84;;;6.66;52.54
66560;BME280;53413;49.878;8.142;2023-03-01T10:56:21;100716.97;;;6.66;52.40
66560;BME280;53413;49.878;8.142;2023-03-01T10:59:01;100712.91;;;6.41;52.83
66560;BME280;53413;49.878;8.142;2023-03-01T11:01:29;100727.78;;;6.24;52.70
66560;BME280;53413;49.878;8.142;2023-03-01T11:06:35;100709.59;;;6.21;53.12
66560;BME280;53413;49.878;8.142;2023-03-01T11:09:22;100699.94;;;6.34;53.90
66560;BME280;53413;49.878;8.142;2023-03-01T11:11:59;100705.84;;;6.53;53.92
66560;BME280;53413;49.878;8.142;2023-03-01T11:14:33;100700.66;;;6.50;53.13
66560;BME280;53413;49.878;8.142;2023-03-01T11:17:10;100698.03;;;6.53;53.45
66560;BME280;53413;49.878;8.142;2023-03-01T11:19:37;100693.63;;;6.58;53.66
66560;BME280;53413;49.878;8.142;2023-03-01T11:22:16;100686.72;;;6.54;52.95
66560;BME280;53413;49.878;8.142;2023-03-01T11:24:54;100688.31;;;6.67;52.79
66560;BME280;53413;49.878;8.142;2023-03-01T11:27:35;100683.88;;;6.74;53.19
66560;BME280;53413;49.878;8.142;2023-03-01T11:32:45;100687.41;;;6.70;53.14
66560;BME280;53413;49.878;8.142;2023-03-01T11:35:22;100679.56;;;6.74;52.95
66560;BME280;53413;49.878;8.142;2023-03-01T11:38:21;100684.69;;;6.79;53.27
66560;BME280;53413;49.878;8.142;2023-03-01T11:40:51;100669.03;;;6.81;52.85
66560;BME280;53413;49.878;8.142;2023-03-01T11:46:37;100657.66;;;6.91;53.19
66560;BME280;53413;49.878;8.142;2023-03-01T11:52:10;100656.72;;;6.97;52.74
66560;BME280;53413;49.878;8.142;2023-03-01T12:05:47;100626.31;;;6.96;52.91
66560;BME280;53413;49.878;8.142;2023-03-01T12:19:48;100619.75;;;7.29;52.66
66560;BME280;53413;49.878;8.142;2023-03-01T12:22:31;100604.88;;;7.36;52.46
66560;BME280;53413;49.878;8.142;2023-03-01T12:33:49;100600.34;;;7.49;52.24
66560;BME280;53413;49.878;8.142;2023-03-01T12:36:41;100595.13;;;7.49;52.03
66560;BME280;53413;49.878;8.142;2023-03-01T12:39:28;100586.59;;;7.39;52.69
66560;BME280;53413;49.878;8.142;2023-03-01T12:50:04;100564.25;;;7.22;51.78
66560;BME280;53413;49.878;8.142;2023-03-01T12:52:38;100556.31;;;7.30;52.25
66560;BME280;53413;49.878;8.142;2023-03-01T12:55:14;100537.81;;;7.46;51.64
66560;BME280;53413;49.878;8.142;2023-03-01T12:57:49;100537.47;;;7.66;51.07
66560;BME280;53413;49.878;8.142;2023-03-01T13:00:32;100536.59;;;7.67;50.90
66560;BME280;53413;49.878;8.142;2023-03-01T13:03:23;100527.84;;;7.69;50.29
66560;BME280;53413;49.878;8.142;2023-03-01T13:06:21;100524.22;;;7.78;50.48
66560;BME280;53413;49.878;8.142;2023-03-01T13:11:21;100511.91;;;7.85;50.32
66560;BME280;53413;49.878;8.142;2023-03-01T13:13:47;100509.06;;;7.97;49.93
66560;BME280;53413;49.878;8.142;2023-03-01T13:21:46;100511.72;;;7.94;49.75
66560;BME280;53413;49.878;8.142;2023-03-01T13:29:46;100488.94;;;8.02;49.23
66560;BME280;53413;49.878;8.142;2023-03-01T13:34:55;100489.03;;;7.99;49.61
66560;BME280;53413;49.878;8.142;2023-03-01T13:37:41;100473.13;;;8.10;48.82
66560;BME280;53413;49.878;8.142;2023-03-01T13:42:45;100475.53;;;8.21;48.59
66560;BME280;53413;49.878;8.142;2023-03-01T13:45:34;100470.22;;;8.24;49.13
66560;BME280;53413;49.878;8.142;2023-03-01T13:51:08;100466.53;;;8.35;47.91
66560;BME280;53413;49.878;8.142;2023-03-01T13:53:40;100461.38;;;8.31;47.64
66560;BME280;53413;49.878;8.142;2023-03-01T13:58:46;100456.47;;;8.16;47.79
66560;BME280;53413;49.878;8.142;2023-03-01T14:01:34;100452.03;;;8.21;47.99
66560;BME280;53413;49.878;8.142;2023-03-01T14:04:02;100458.94;;;8.24;47.15
66560;BME280;53413;49.878;8.142;2023-03-01T14:06:32;100454.66;;;8.21;47.32
66560;BME280;53413;49.878;8.142;2023-03-01T14:09:25;100444.19;;;8.21;47.37
66560;BME280;53413;49.878;8.142;2023-03-01T14:12:14;100455.50;;;8.22;47.20
66560;BME280;53413;49.878;8.142;2023-03-01T14:20:09;100456.38;;;8.22;47.01
66560;BME280;53413;49.878;8.142;2023-03-01T14:22:36;100458.09;;;8.23;47.50
66560;BME280;53413;49.878;8.142;2023-03-01T14:25:05;100452.72;;;8.29;47.79
66560;BME280;53413;49.878;8.142;2023-03-01T14:27:36;100456.25;;;8.27;46.66
66560;BME280;53413;49.878;8.142;2023-03-01T14:30:14;100461.66;;;8.19;46.79
66560;BME280;53413;49.878;8.142;2023-03-01T14:32:40;100460.81;;;8.17;46.69
66560;BME280;53413;49.878;8.142;2023-03-01T14:35:35;100461.66;;;8.19;47.20
66560;BME280;53413;49.878;8.142;2023-03-01T14:38:02;100451.19;;;8.19;47.03
66560;BME280;53413;49.878;8.142;2023-03-01T14:40:28;100439.13;;;8.13;47.56
66560;BME280;53413;49.878;8.142;2023-03-01T14:42:57;100434.69;;;8.17;47.51
66560;BME280;53413;49.878;8.142;2023-03-01T14:45:25;100439.97;;;8.14;47.28